createdAt,value
2023-05-19T00:02:47.980Z,4.13
2023-05-19T00:05:54.077Z,4.00
2023-05-19T00:09:01.152Z,4.00
2023-05-19T00:12:06.207Z,4.43
2023-05-19T00:15:11.396Z,4.63
2023-05-19T00:21:21.023Z,2.53
2023-05-19T00:24:25.310Z,4.10
2023-05-19T00:27:29.626Z,3.10
2023-05-19T00:30:34.411Z,4.50
2023-05-19T00:36:43.808Z,4.68
2023-05-19T00:39:51.698Z,4.72
2023-05-19T00:42:55.814Z,4.50
2023-05-19T00:46:00.523Z,4.87
2023-05-19T00:49:04.930Z,4.95
2023-05-19T00:52:09.598Z,4.80
2023-05-19T00:55:14.646Z,4.97
2023-05-19T00:58:19.583Z,4.57
2023-05-19T01:04:34.808Z,4.85
2023-05-19T01:07:41.524Z,4.32
2023-05-19T01:10:46.104Z,4.32
2023-05-19T01:13:50.719Z,3.97
2023-05-19T01:20:42.780Z,5.13
2023-05-19T01:24:22.908Z,5.80
2023-05-19T01:27:30.883Z,5.35
2023-05-19T01:30:43.297Z,5.75
2023-05-19T01:33:51.746Z,7.63
2023-05-19T01:36:58.168Z,5.70
2023-05-19T01:40:03.719Z,6.43
2023-05-19T01:43:11.732Z,6.55
2023-05-19T01:46:17.510Z,6.22
2023-05-19T01:49:22.102Z,6.57
2023-05-19T01:52:26.614Z,7.00
2023-05-19T01:55:30.963Z,4.57
2023-05-19T01:58:48.065Z,6.07
2023-05-19T02:01:54.898Z,6.10
2023-05-19T02:05:13.448Z,6.03
2023-05-19T02:08:27.739Z,6.07
2023-05-19T02:11:42.213Z,6.40
2023-05-19T02:14:58.340Z,5.45
2023-05-19T02:18:04.481Z,6.50
2023-05-19T02:21:13.092Z,6.85
2023-05-19T02:24:18.441Z,7.30
2023-05-19T02:27:22.951Z,6.97
2023-05-19T02:30:27.838Z,6.68
2023-05-19T02:33:32.388Z,7.05
2023-05-19T02:36:38.877Z,7.25
2023-05-19T02:39:44.336Z,8.57
2023-05-19T02:42:49.000Z,7.32
2023-05-19T02:45:53.614Z,7.72
2023-05-19T02:48:57.759Z,8.10
2023-05-19T02:52:03.293Z,8.60
2023-05-19T02:55:08.260Z,6.10
2023-05-19T02:58:13.005Z,7.07
2023-05-19T03:01:17.581Z,5.65
2023-05-19T03:04:22.110Z,7.45
2023-05-19T03:07:26.773Z,7.27
2023-05-19T03:10:31.536Z,6.68
2023-05-19T03:13:36.118Z,6.45
2023-05-19T03:16:43.692Z,6.00
2023-05-19T03:19:48.543Z,6.22
2023-05-19T03:22:53.027Z,6.75
2023-05-19T03:25:57.426Z,6.03
2023-05-19T03:29:02.125Z,6.47
2023-05-19T03:32:08.589Z,7.28
2023-05-19T03:35:13.896Z,6.60
2023-05-19T03:38:18.343Z,7.00
2023-05-19T03:41:31.183Z,6.43
2023-05-19T03:44:35.892Z,7.88
2023-05-19T03:47:41.349Z,6.80
2023-05-19T03:51:06.054Z,6.72
2023-05-19T03:54:10.560Z,4.90
2023-05-19T03:57:15.156Z,6.50
2023-05-19T04:00:20.245Z,6.57
2023-05-19T04:03:26.153Z,6.00
2023-05-19T04:06:31.062Z,7.93
2023-05-19T04:09:36.052Z,6.72
2023-05-19T04:12:40.895Z,8.00
2023-05-19T04:15:46.856Z,7.25
2023-05-19T04:18:51.243Z,5.75
2023-05-19T04:21:55.403Z,6.85
2023-05-19T04:25:00.450Z,6.55
2023-05-19T04:28:05.206Z,9.77
2023-05-19T04:31:11.107Z,7.75
2023-05-19T04:34:19.791Z,7.68
2023-05-19T04:37:27.829Z,8.57
2023-05-19T04:40:32.960Z,7.25
2023-05-19T04:43:41.704Z,7.07
2023-05-19T04:46:46.648Z,6.80
2023-05-19T04:49:55.401Z,6.90
2023-05-19T04:52:59.855Z,6.97
2023-05-19T04:56:05.909Z,6.68
2023-05-19T04:59:10.866Z,6.57
2023-05-19T05:02:15.534Z,6.05
2023-05-19T05:05:20.146Z,6.47
2023-05-19T05:08:24.529Z,6.22
2023-05-19T05:11:30.852Z,6.10
2023-05-19T05:14:35.813Z,5.72
2023-05-19T05:17:41.390Z,5.50
2023-05-19T05:23:52.329Z,5.57
2023-05-19T05:26:59.343Z,5.90
2023-05-19T05:30:05.091Z,4.68
2023-05-19T05:33:10.035Z,4.88
2023-05-19T05:36:16.068Z,4.18
2023-05-19T05:39:20.678Z,4.32
2023-05-19T05:42:27.664Z,4.05
2023-05-19T05:45:33.979Z,5.78
2023-05-19T05:48:39.329Z,3.75
2023-05-19T05:51:54.316Z,4.07
2023-05-19T05:55:11.461Z,3.58
2023-05-19T05:58:17.106Z,3.83
2023-05-19T06:01:21.917Z,3.38
2023-05-19T06:04:26.606Z,3.65
2023-05-19T06:07:32.219Z,2.40
2023-05-19T06:10:38.708Z,3.08
2023-05-19T06:13:45.897Z,2.50
2023-05-19T06:16:58.335Z,2.63
2023-05-19T06:20:04.253Z,2.50
2023-05-19T06:23:08.836Z,3.08
2023-05-19T06:26:13.488Z,2.17
2023-05-19T06:29:17.815Z,1.85
2023-05-19T06:32:22.735Z,2.63
2023-05-19T06:35:27.504Z,2.30
2023-05-19T06:41:37.306Z,2.00
2023-05-19T06:44:42.162Z,2.08
2023-05-19T06:47:49.479Z,1.70
2023-05-19T06:50:54.386Z,1.73
2023-05-19T06:53:58.903Z,3.17
2023-05-19T06:57:04.487Z,3.70
2023-05-19T07:00:15.253Z,4.22
2023-05-19T07:03:24.688Z,3.75
2023-05-19T07:06:29.496Z,4.07
2023-05-19T07:09:33.880Z,3.75
2023-05-19T07:12:39.054Z,4.32
2023-05-19T07:15:44.110Z,3.90
2023-05-19T07:18:48.663Z,2.58
2023-05-19T07:21:52.983Z,3.30
2023-05-19T07:28:01.909Z,3.13
2023-05-19T07:31:06.703Z,2.65
2023-05-19T07:34:11.146Z,2.53
2023-05-19T07:40:20.739Z,2.72
2023-05-19T07:43:25.449Z,2.63
2023-05-19T07:46:30.279Z,2.30
2023-05-19T07:49:34.837Z,2.55
2023-05-19T07:52:39.165Z,1.52
2023-05-19T07:58:47.888Z,1.30
2023-05-19T08:01:52.216Z,1.95
2023-05-19T08:08:01.035Z,1.50
2023-05-19T08:11:05.460Z,1.58
2023-05-19T08:14:10.774Z,1.75
2023-05-19T08:17:15.484Z,2.28
2023-05-19T08:20:20.331Z,1.42
2023-05-19T08:23:25.073Z,2.45
2023-05-19T08:26:29.620Z,1.73
2023-05-19T08:29:34.122Z,2.58
2023-05-19T08:32:38.735Z,1.70
2023-05-19T08:35:43.381Z,2.05
2023-05-19T08:38:48.003Z,2.00
2023-05-19T08:41:55.771Z,2.80
2023-05-19T08:45:01.611Z,2.60
2023-05-19T08:48:06.814Z,2.53
2023-05-19T08:51:42.411Z,2.40
2023-05-19T08:55:09.758Z,1.75
2023-05-19T08:58:16.277Z,2.40
2023-05-19T09:01:22.315Z,1.77
2023-05-19T09:04:30.004Z,1.77
2023-05-19T09:07:37.760Z,2.17
2023-05-19T09:10:41.917Z,1.73
2023-05-19T09:13:46.983Z,1.15
2023-05-19T09:16:52.817Z,1.80
2023-05-19T09:20:01.541Z,2.05
2023-05-19T09:23:06.217Z,1.92
2023-05-19T09:26:10.800Z,2.25
2023-05-19T09:29:18.453Z,1.40
2023-05-19T09:32:29.240Z,2.63
2023-05-19T09:35:35.087Z,2.35
2023-05-19T09:38:40.087Z,2.55
2023-05-19T09:41:45.153Z,3.05
2023-05-19T09:44:51.563Z,1.90
2023-05-19T09:47:56.094Z,1.20
2023-05-19T09:51:06.295Z,2.45
2023-05-19T09:54:16.254Z,1.92
2023-05-19T09:57:27.069Z,1.77
2023-05-19T10:00:32.872Z,1.67
2023-05-19T10:03:39.189Z,1.45
2023-05-19T10:06:44.686Z,1.27
2023-05-19T10:09:50.137Z,1.52
2023-05-19T10:12:55.115Z,1.73
2023-05-19T10:16:00.539Z,2.08
2023-05-19T10:19:07.682Z,1.92
2023-05-19T10:22:12.218Z,1.20
2023-05-19T10:25:19.752Z,1.88
2023-05-19T10:28:31.705Z,2.53
2023-05-19T10:31:40.208Z,2.28
2023-05-19T10:34:59.821Z,2.85
2023-05-19T10:38:25.066Z,2.53
2023-05-19T10:41:46.971Z,1.77
2023-05-19T10:45:12.985Z,1.80
2023-05-19T10:48:19.402Z,2.53
2023-05-19T10:51:33.934Z,3.03
2023-05-19T10:54:43.611Z,2.60
2023-05-19T10:57:57.189Z,2.22
2023-05-19T11:01:01.772Z,1.48
2023-05-19T11:04:13.947Z,2.70
2023-05-19T11:07:22.486Z,2.08
2023-05-19T11:10:26.688Z,2.75
2023-05-19T11:13:31.428Z,2.75
2023-05-19T11:16:36.135Z,2.92
2023-05-19T11:23:11.092Z,2.30
2023-05-19T11:26:15.866Z,2.92
2023-05-19T11:29:21.403Z,2.53
2023-05-19T11:32:31.913Z,2.33
2023-05-19T11:35:37.361Z,2.85
2023-05-19T11:38:43.222Z,3.47
2023-05-19T11:41:47.460Z,3.38
2023-05-19T11:44:56.183Z,3.03
2023-05-19T11:48:04.091Z,3.17
2023-05-19T11:51:08.696Z,2.53
2023-05-19T11:57:17.982Z,3.58
2023-05-19T12:00:23.325Z,2.35
2023-05-19T12:03:28.765Z,2.83
2023-05-19T12:06:34.315Z,2.13
2023-05-19T12:09:39.483Z,2.13
2023-05-19T12:12:45.240Z,2.63
2023-05-19T12:15:52.256Z,3.20
2023-05-19T12:18:57.148Z,2.92
2023-05-19T12:22:04.006Z,2.97
2023-05-19T12:25:09.263Z,2.55
2023-05-19T12:28:16.186Z,1.90
2023-05-19T12:31:23.752Z,2.67
2023-05-19T12:34:28.438Z,1.33
2023-05-19T12:37:34.892Z,2.13
2023-05-19T12:40:39.586Z,1.75
2023-05-19T12:46:52.167Z,2.72
2023-05-19T12:49:59.429Z,2.30
2023-05-19T12:53:08.549Z,2.33
2023-05-19T12:56:16.917Z,2.60
2023-05-19T12:59:37.845Z,2.00
2023-05-19T13:03:06.712Z,2.63
2023-05-19T13:06:11.788Z,2.28
2023-05-19T13:09:17.823Z,1.95
2023-05-19T13:12:22.479Z,2.35
2023-05-19T13:18:32.535Z,1.58
2023-05-19T13:21:37.051Z,2.35
2023-05-19T13:27:47.951Z,3.33
2023-05-19T13:30:52.464Z,2.40
2023-05-19T13:37:01.433Z,2.10
2023-05-19T13:40:06.835Z,2.00
2023-05-19T13:43:11.420Z,2.17
2023-05-19T13:49:20.045Z,2.40
2023-05-19T13:52:24.562Z,2.40
2023-05-19T13:55:29.484Z,1.65
2023-05-19T13:58:34.231Z,2.55
2023-05-19T14:01:38.749Z,2.17
2023-05-19T14:07:47.773Z,1.60
2023-05-19T14:13:56.758Z,2.25
2023-05-19T14:17:01.002Z,1.35
2023-05-19T14:20:05.793Z,1.15
2023-05-19T14:23:10.100Z,0.90
2023-05-19T14:26:14.607Z,1.52
2023-05-19T14:29:19.405Z,1.08
2023-05-19T14:32:24.269Z,0.82
2023-05-19T14:38:33.159Z,1.02
2023-05-19T14:41:37.824Z,1.80
2023-05-19T14:44:42.014Z,1.20
2023-05-19T14:47:47.695Z,0.98
2023-05-19T14:50:53.479Z,1.00
2023-05-19T14:53:57.844Z,0.55
2023-05-19T14:57:02.957Z,1.05
2023-05-19T15:00:10.153Z,0.68
2023-05-19T15:03:14.400Z,1.02
2023-05-19T15:09:23.333Z,0.70
2023-05-19T15:15:32.164Z,1.00
2023-05-19T15:21:42.521Z,1.25
2023-05-19T15:24:47.140Z,0.57
2023-05-19T15:27:51.793Z,1.10
2023-05-19T15:30:56.469Z,0.77
2023-05-19T15:34:00.856Z,0.63
2023-05-19T15:37:05.579Z,0.73
2023-05-19T15:40:10.741Z,1.15
2023-05-19T15:43:15.176Z,1.25
2023-05-19T15:46:19.688Z,1.05
2023-05-19T15:49:25.160Z,1.38
2023-05-19T15:52:29.649Z,0.77
2023-05-19T15:55:34.128Z,0.98
2023-05-19T15:58:38.729Z,1.73
2023-05-19T16:01:43.195Z,1.02
2023-05-19T16:04:47.491Z,0.50
2023-05-19T16:07:51.828Z,0.28
2023-05-19T16:10:56.319Z,0.50
2023-05-19T16:14:01.018Z,0.80
2023-05-19T16:17:11.328Z,0.50
2023-05-19T16:20:16.086Z,0.30
2023-05-19T16:23:20.803Z,0.50
2023-05-19T16:26:26.446Z,0.80
2023-05-19T16:29:30.612Z,0.70
2023-05-19T16:32:35.034Z,2.05
2023-05-19T16:35:39.510Z,0.45
2023-05-19T16:38:44.122Z,2.88
2023-05-19T16:41:48.573Z,1.30
2023-05-19T16:44:52.992Z,1.00
2023-05-19T16:47:57.610Z,0.60
2023-05-19T16:51:01.816Z,0.70
2023-05-19T16:54:06.210Z,0.52
2023-05-19T16:57:10.651Z,0.68
2023-05-19T17:00:15.855Z,0.10
2023-05-19T17:03:20.212Z,0.20
2023-05-19T17:06:25.097Z,0.30
2023-05-19T17:09:29.628Z,0.50
2023-05-19T17:12:34.326Z,0.35
2023-05-19T17:15:40.909Z,0.20
2023-05-19T17:18:47.980Z,0.40
2023-05-19T17:21:52.415Z,0.50
2023-05-19T17:28:02.036Z,1.05
2023-05-19T17:34:14.395Z,0.28
2023-05-19T17:37:23.285Z,0.30
2023-05-19T17:40:28.522Z,0.45
2023-05-19T17:43:32.873Z,0.38
2023-05-19T17:49:43.607Z,0.40
2023-05-19T17:55:57.972Z,1.05
2023-05-19T17:59:02.825Z,0.20
2023-05-19T18:02:08.241Z,0.10
2023-05-19T18:05:13.149Z,0.17
2023-05-19T18:08:18.243Z,0.40
2023-05-19T18:11:23.041Z,0.10
2023-05-19T18:14:28.087Z,0.25
2023-05-19T18:17:32.642Z,0.20
2023-05-19T18:20:44.141Z,0.20
2023-05-19T18:23:48.366Z,0.30
2023-05-19T18:26:52.544Z,0.45
2023-05-19T18:29:57.062Z,0.20
2023-05-19T18:33:03.570Z,0.20
2023-05-19T18:36:08.530Z,0.47
2023-05-19T18:39:13.352Z,0.73
2023-05-19T18:42:17.761Z,0.00
2023-05-19T18:45:22.205Z,0.68
2023-05-19T18:48:27.220Z,1.00
2023-05-19T18:51:33.516Z,0.35
2023-05-19T18:54:38.898Z,0.22
2023-05-19T18:57:43.619Z,0.20
2023-05-19T19:00:48.173Z,0.43
2023-05-19T19:03:52.442Z,0.08
2023-05-19T19:06:56.752Z,0.20
2023-05-19T19:13:06.515Z,0.10
2023-05-19T19:16:11.191Z,0.20
2023-05-19T19:19:15.775Z,0.35
2023-05-19T19:22:19.891Z,0.47
2023-05-19T19:25:24.520Z,0.20
2023-05-19T19:28:29.377Z,0.40
2023-05-19T19:31:33.940Z,0.20
2023-05-19T19:34:38.199Z,0.20
2023-05-19T19:37:42.519Z,1.20
2023-05-19T19:40:47.077Z,0.75
2023-05-19T19:43:51.961Z,0.35
2023-05-19T19:46:56.667Z,0.28
2023-05-19T19:50:02.575Z,0.10
2023-05-19T19:53:08.725Z,0.05
2023-05-19T19:56:12.841Z,0.10
2023-05-19T19:59:17.502Z,0.50
2023-05-19T20:02:22.727Z,0.20
2023-05-19T20:05:27.698Z,0.30
2023-05-19T20:08:32.203Z,0.50
2023-05-19T20:11:36.586Z,0.28
2023-05-19T20:14:41.217Z,0.28
2023-05-19T20:17:45.902Z,0.10
2023-05-19T20:20:51.186Z,0.15
2023-05-19T20:27:00.499Z,0.05
2023-05-19T20:30:05.815Z,0.28
2023-05-19T20:33:11.853Z,1.17
2023-05-19T20:36:16.824Z,0.20
2023-05-19T20:39:21.319Z,0.32
2023-05-19T20:42:26.013Z,0.30
2023-05-19T20:45:30.717Z,0.17
2023-05-19T20:48:35.147Z,0.40
2023-05-19T20:51:39.725Z,0.22
2023-05-19T20:54:46.256Z,0.77
2023-05-19T20:57:51.073Z,1.08
2023-05-19T21:00:57.750Z,0.80
2023-05-19T21:04:06.856Z,0.52
2023-05-19T21:07:12.474Z,0.40
2023-05-19T21:10:18.025Z,0.40
2023-05-19T21:13:22.267Z,0.50
2023-05-19T21:16:26.809Z,0.30
2023-05-19T21:19:31.504Z,0.28
2023-05-19T21:22:36.003Z,0.28
2023-05-19T21:25:40.794Z,0.50
2023-05-19T21:28:45.594Z,0.50
2023-05-19T21:31:52.135Z,0.20
2023-05-19T21:34:56.811Z,0.25
2023-05-19T21:38:12.061Z,0.05
2023-05-19T21:41:25.887Z,0.57
2023-05-19T21:44:31.935Z,0.30
2023-05-19T21:47:36.408Z,0.30
2023-05-19T21:50:40.928Z,0.20
2023-05-19T21:53:45.546Z,0.10
2023-05-19T21:56:49.821Z,0.35
2023-05-19T21:59:54.230Z,0.25
2023-05-19T22:02:58.780Z,0.32
2023-05-19T22:06:03.334Z,0.35
2023-05-19T22:09:08.052Z,0.30
2023-05-19T22:15:17.437Z,0.20
2023-05-19T22:18:22.169Z,0.20
2023-05-19T22:21:26.827Z,0.20
2023-05-19T22:24:31.359Z,0.30
2023-05-19T22:27:35.908Z,0.28
2023-05-19T22:30:42.190Z,0.30
2023-05-19T22:33:46.955Z,0.17
2023-05-19T22:36:51.442Z,0.55
2023-05-19T22:39:56.009Z,0.38
2023-05-19T22:43:00.450Z,0.50
2023-05-19T22:49:09.648Z,0.20
2023-05-19T22:52:14.045Z,0.20
2023-05-19T22:55:18.604Z,0.20
2023-05-19T22:58:22.945Z,0.10
2023-05-19T23:01:27.559Z,0.20
2023-05-19T23:04:33.136Z,0.25
2023-05-19T23:07:37.455Z,0.52
2023-05-19T23:10:41.899Z,0.25
2023-05-19T23:13:46.530Z,0.40
2023-05-19T23:16:51.016Z,0.20
2023-05-19T23:19:55.339Z,0.15
2023-05-19T23:22:59.921Z,0.30
2023-05-19T23:26:04.814Z,0.52
2023-05-19T23:29:14.825Z,0.20
2023-05-19T23:32:19.378Z,0.30
2023-05-19T23:35:23.823Z,1.08
2023-05-19T23:38:28.418Z,0.40
2023-05-19T23:41:32.831Z,0.50
2023-05-19T23:44:37.039Z,0.20
2023-05-19T23:47:41.621Z,0.25
2023-05-19T23:50:46.158Z,1.95
2023-05-19T23:53:50.858Z,0.30
2023-05-19T23:56:55.807Z,0.30
